Seiyoh No.6 — JD3381 — position and weather

sailwx.info

Track history (hours):
 
Tides and Currents Weather Stations Pressure Air Temp Water Temp Dewpoint Dewpoint Depression Visibility Wind Speed Wind Dir Waves Ship Positions

Seiyoh No.6

Last reported at 2018-May-21 03:00 UTC. Time now 2018-May-21 14:42 UTC.
Position N 34°37' E 135°02'.

Length 60 m.

Type: Tanker. MMSI: 431003734.

Date/timePositionNaut miles runAvg speedWind from/ knotsBaromVisibWave heightAir tempDewpointWater temp
2018-May-21 03:00N 34°37' E 135°02'611.7
2018-May-21 02:27N 34°37' E 135°10'611.2
2018-May-21 01:57N 34°38' E 135°17'1 0.2
2018-May-20 21:37N 34°39' E 135°18'0 2.6
2018-May-20 21:30N 34°39' E 135°18'1 0.4
2018-May-20 19:17N 34°39' E 135°19'0 0.0
2018-May-20 18:58N 34°39' E 135°19'0 0.0
2018-May-20 18:25N 34°39' E 135°19'0 0.0
2018-May-20 17:57N 34°39' E 135°19'2 3.9
2018-May-20 17:30N 34°38' E 135°17'710.4
2018-May-20 16:51N 34°36' E 135°09'410.6
2018-May-20 16:30N 34°35' E 135°05'11 7.7
2018-May-20 15:08N 34°34' E 134°52'1 7.6
2018-May-20 14:57N 34°33' E 134°51'4 8.4
2018-May-20 14:29N 34°32' E 134°46'5 9.8
2018-May-20 14:01N 34°30' E 134°41'610.6
2018-May-20 13:29N 34°28' E 134°35'  
2018-May-13 23:37N 34°44' E 134°47'1 0.3
2018-May-13 20:56N 34°44' E 134°47'0 0.0
2018-May-13 20:26N 34°44' E 134°47'0 0.0
2018-May-13 17:59N 34°44' E 134°47'1 1.0
2018-May-13 17:04N 34°44' E 134°46'112.4
2018-May-13 16:59N 34°44' E 134°45'612.4
2018-May-13 16:30N 34°43' E 134°37'10611.4
2018-May-13 07:11N 33°57' E 132°42'65 2.0
2018-May-11 23:02N 33°16' E 131°40'1 6.1
2018-May-11 22:51N 33°18' E 131°40'4 0.6
2018-May-11 15:46N 33°22' E 131°42'511.9
2018-May-11 15:22N 33°24' E 131°47'512.4
2018-May-11 14:57N 33°27' E 131°52'512.2
2018-May-11 14:30N 33°30' E 131°57'612.3
2018-May-11 14:00N 33°34' E 132°03'3612.3
2018-May-11 11:03N 33°55' E 132°38'111.3
2018-May-11 10:57N 33°56' E 132°39'510.8
2018-May-11 10:27N 33°59' E 132°44'  
Track history (hours):
 
Tides and Currents Weather Stations Pressure Air Temp Water Temp Dewpoint Dewpoint Depression Visibility Wind Speed Wind Dir Waves Ship Positions

Seiyoh No.6

Last reported at 2018-May-21 03:00 UTC. Time now 2018-May-21 14:42 UTC.
Position N 34°37' E 135°02'.

Length 60 m.

Type: Tanker. MMSI: 431003734.

Date/timePositionNaut miles runAvg speedWind from/ knotsBaromVisibWave heightAir tempDewpointWater temp
2018-May-21 03:00N 34°37' E 135°02'611.7
2018-May-21 02:27N 34°37' E 135°10'611.2
2018-May-21 01:57N 34°38' E 135°17'1 0.2
2018-May-20 21:37N 34°39' E 135°18'0 2.6
2018-May-20 21:30N 34°39' E 135°18'1 0.4
2018-May-20 19:17N 34°39' E 135°19'0 0.0
2018-May-20 18:58N 34°39' E 135°19'0 0.0
2018-May-20 18:25N 34°39' E 135°19'0 0.0
2018-May-20 17:57N 34°39' E 135°19'2 3.9
2018-May-20 17:30N 34°38' E 135°17'710.4
2018-May-20 16:51N 34°36' E 135°09'410.6
2018-May-20 16:30N 34°35' E 135°05'11 7.7
2018-May-20 15:08N 34°34' E 134°52'1 7.6
2018-May-20 14:57N 34°33' E 134°51'4 8.4
2018-May-20 14:29N 34°32' E 134°46'5 9.8
2018-May-20 14:01N 34°30' E 134°41'610.6
2018-May-20 13:29N 34°28' E 134°35'  
2018-May-13 23:37N 34°44' E 134°47'1 0.3
2018-May-13 20:56N 34°44' E 134°47'0 0.0
2018-May-13 20:26N 34°44' E 134°47'0 0.0
2018-May-13 17:59N 34°44' E 134°47'1 1.0
2018-May-13 17:04N 34°44' E 134°46'112.4
2018-May-13 16:59N 34°44' E 134°45'612.4
2018-May-13 16:30N 34°43' E 134°37'10611.4
2018-May-13 07:11N 33°57' E 132°42'65 2.0
2018-May-11 23:02N 33°16' E 131°40'1 6.1
2018-May-11 22:51N 33°18' E 131°40'4 0.6
2018-May-11 15:46N 33°22' E 131°42'511.9
2018-May-11 15:22N 33°24' E 131°47'512.4
2018-May-11 14:57N 33°27' E 131°52'512.2
2018-May-11 14:30N 33°30' E 131°57'612.3
2018-May-11 14:00N 33°34' E 132°03'3612.3
2018-May-11 11:03N 33°55' E 132°38'111.3
2018-May-11 10:57N 33°56' E 132°39'510.8
2018-May-11 10:27N 33°59' E 132°44'  

Dump ship's entire track history